Hauptseite
METAR-TAF:

METAR-TAF

Flughäfen :

Flughafen Annecy

Annecy, Frankreich

Breite: 45-55-45N, Länge: 006-05-56E, Höhe: 463 m

Beobachtung

Neuester Wetterbericht von vor 35 Minuten, um 04:00 UTC
Wind 4 kt aus Nordost, variierte zwischen Nord und Ost/Nordost
Temperatur -1°C
Luftfeuchtigkeit 86%
Luftdruck 1028 hPa
Sichtweite 10 km oder mehr
keine Wolken unter 1500 m und keine Kumulonimbus oder Gewitterwolken

METAR: LFLP 170400Z AUTO 04004KT 360V060 CAVOK M01/M03 Q1028 NOSIG

Zeit: 05:35 (04:35 UTC)

Prognose

Neuester Wetterbericht von vor 2 Stunden und 35 Minuten, um 02:00 UTC
Gültige Prognose vom 17 um 03 UTC bis 18 um 03 UTC
Wind 2 kt aus unterschiedlichen Richtungen
Sichtweite 10 km oder mehr
keine Wolken unter 1500 m und keine Kumulonimbus oder Gewitterwolken

TAF: LFLP 170200Z 1703/1803 VRB02KT CAVOK

Wetterbeobachtungen und Prognosen von mehr als 4000 Flughäfen (METAR und TAF Bericht).

Die verfügbaren Stationen werden durch gelbe und rote Markierungen auf der Karte dargestellt.

Führen Sie die Maus auf sie, um den Namen der Station zu sehen.

Darauf klicken, um die Beobachtung von Wetterbeobachtungen und Prognosen zu sehen.

Um die Karte zu ändern : klicken Sie auf den grünen Tasten mit einem schwarzen Kreuz Zum Vergrößern, auf den grünen Button mit einem Gedankenstrich zu verkleinern, oder auf die grünen Pfeile für benachbarte Karten.


METAR-TAF: